createdAt,value
2023-01-02T00:02:27.732Z,99.80
2023-01-02T00:06:37.613Z,99.80
2023-01-02T00:10:39.421Z,99.70
2023-01-02T00:14:41.182Z,99.90
2023-01-02T00:18:43.097Z,99.70
2023-01-02T00:22:45.123Z,99.90
2023-01-02T00:26:46.993Z,99.90
2023-01-02T00:30:48.792Z,99.90
2023-01-02T00:34:51.494Z,99.70
2023-01-02T00:38:56.334Z,99.60
2023-01-02T00:42:58.141Z,99.50
2023-01-02T00:47:00.063Z,99.60
2023-01-02T00:51:01.900Z,99.60
2023-01-02T00:55:04.243Z,99.40
2023-01-02T00:59:06.019Z,99.10
2023-01-02T01:03:07.972Z,99.20
2023-01-02T01:07:09.843Z,99.60
2023-01-02T01:11:13.935Z,99.60
2023-01-02T01:15:16.885Z,99.20
2023-01-02T01:19:20.224Z,99.30
2023-01-02T01:23:23.195Z,99.50
2023-01-02T01:27:24.974Z,99.30
2023-01-02T01:31:26.790Z,99.40
2023-01-02T01:35:28.562Z,99.20
2023-01-02T01:39:30.391Z,99.40
2023-01-02T01:43:53.394Z,99.40
2023-01-02T01:47:58.591Z,99.80
2023-01-02T01:52:06.827Z,99.60
2023-01-02T01:56:11.416Z,99.40
2023-01-02T02:00:13.774Z,99.40
2023-01-02T02:04:16.476Z,99.90
2023-01-02T02:08:30.306Z,99.90
2023-01-02T02:12:33.638Z,99.70
2023-01-02T02:16:41.826Z,99.50
2023-01-02T02:21:02.460Z,99.60
2023-01-02T02:25:22.125Z,99.50
2023-01-02T02:29:42.137Z,99.40
2023-01-02T02:33:58.121Z,99.70
2023-01-02T02:38:34.148Z,99.10
2023-01-02T02:43:10.507Z,99.10
2023-01-02T02:47:33.238Z,99.20
2023-01-02T02:51:49.439Z,99.10
2023-01-02T02:55:54.539Z,98.90
2023-01-02T02:59:56.468Z,98.80
2023-01-02T03:03:58.621Z,99.00
2023-01-02T03:08:32.715Z,99.70
2023-01-02T03:13:01.008Z,99.30
2023-01-02T03:17:30.045Z,99.10
2023-01-02T03:21:53.525Z,99.00
2023-01-02T03:25:58.524Z,99.20
2023-01-02T03:30:07.536Z,99.20
2023-01-02T03:34:15.078Z,99.30
2023-01-02T03:38:24.687Z,99.20
2023-01-02T03:42:30.068Z,99.90
2023-01-02T03:46:54.866Z,99.90
2023-01-02T03:50:59.199Z,99.90
2023-01-02T03:55:01.771Z,99.30
2023-01-02T03:59:15.528Z,99.20
2023-01-02T04:03:24.626Z,99.30
2023-01-02T04:07:46.927Z,99.20
2023-01-02T04:11:58.056Z,99.20
2023-01-02T04:16:03.380Z,99.10
2023-01-02T04:20:10.850Z,99.10
2023-01-02T04:24:24.695Z,99.20
2023-01-02T04:28:32.218Z,99.20
2023-01-02T04:32:41.178Z,99.90
2023-01-02T04:36:43.250Z,99.70
2023-01-02T04:40:45.405Z,99.80
2023-01-02T04:44:47.184Z,99.70
2023-01-02T04:48:48.985Z,99.80
2023-01-02T04:52:50.760Z,99.90
2023-01-02T04:56:52.662Z,99.90
2023-01-02T05:00:54.787Z,99.90
2023-01-02T05:04:56.558Z,99.90
2023-01-02T05:08:58.806Z,99.90
2023-01-02T05:13:00.614Z,99.90
2023-01-02T05:17:02.437Z,99.40
2023-01-02T05:21:30.717Z,99.80
2023-01-02T05:25:34.450Z,99.90
2023-01-02T05:29:36.189Z,99.90
2023-01-02T05:33:38.248Z,99.90
2023-01-02T05:37:40.058Z,99.90
2023-01-02T05:41:42.555Z,99.90
2023-01-02T05:45:44.374Z,99.90
2023-01-02T05:49:46.127Z,99.60
2023-01-02T05:53:47.947Z,99.20
2023-01-02T05:57:53.923Z,99.20
2023-01-02T06:01:55.829Z,99.20
2023-01-02T06:05:57.673Z,99.20
2023-01-02T06:10:00.524Z,99.20
2023-01-02T06:14:02.336Z,99.20
2023-01-02T06:18:04.102Z,99.10
2023-01-02T06:22:05.864Z,99.30
2023-01-02T06:26:09.142Z,99.20
2023-01-02T06:30:11.158Z,99.30
2023-01-02T06:34:13.078Z,99.50
2023-01-02T06:38:14.863Z,99.40
2023-01-02T06:42:16.683Z,99.20
2023-01-02T06:46:20.352Z,99.10
2023-01-02T06:50:25.508Z,99.20
2023-01-02T06:54:29.182Z,99.90
2023-01-02T06:58:33.284Z,99.70
2023-01-02T07:02:35.185Z,99.60
2023-01-02T07:06:36.986Z,99.80
2023-01-02T07:10:38.791Z,99.70
2023-01-02T07:14:40.570Z,99.20
2023-01-02T07:18:42.778Z,99.70
2023-01-02T07:22:51.135Z,99.30
2023-01-02T07:26:52.896Z,99.80
2023-01-02T07:31:01.713Z,99.40
2023-01-02T07:35:03.604Z,99.30
2023-01-02T07:39:05.382Z,99.90
2023-01-02T07:43:07.247Z,99.90
2023-01-02T07:47:09.040Z,99.90
2023-01-02T07:51:11.814Z,99.90
2023-01-02T07:55:13.636Z,99.90
2023-01-02T07:59:15.485Z,99.90
2023-01-02T08:03:17.566Z,99.90
2023-01-02T08:07:19.895Z,99.90
2023-01-02T08:11:22.536Z,99.90
2023-01-02T08:15:25.299Z,99.90
2023-01-02T08:19:27.171Z,99.90
2023-01-02T08:23:29.077Z,99.90
2023-01-02T08:27:30.874Z,99.90
2023-01-02T08:31:32.668Z,99.90
2023-01-02T08:35:38.924Z,99.90
2023-01-02T08:39:41.029Z,99.90
2023-01-02T08:43:42.836Z,99.90
2023-01-02T08:47:44.587Z,99.90
2023-01-02T08:51:46.339Z,99.90
2023-01-02T08:55:48.121Z,99.90
2023-01-02T08:59:50.969Z,99.90
2023-01-02T09:03:53.389Z,99.90
2023-01-02T09:07:55.216Z,99.90
2023-01-02T09:11:57.198Z,99.90
2023-01-02T09:15:59.000Z,99.90
2023-01-02T09:20:00.832Z,99.90
2023-01-02T09:24:02.682Z,99.90
2023-01-02T09:28:04.597Z,99.90
2023-01-02T09:32:06.463Z,99.90
2023-01-02T09:36:10.914Z,99.90
2023-01-02T09:40:14.479Z,99.90
2023-01-02T09:44:27.118Z,99.90
2023-01-02T09:48:33.731Z,99.90
2023-01-02T09:52:40.003Z,99.90
2023-01-02T09:56:47.413Z,99.90
2023-01-02T10:00:50.569Z,99.90
2023-01-02T10:04:55.336Z,99.90
2023-01-02T10:09:18.132Z,99.90
2023-01-02T10:13:44.369Z,99.90
2023-01-02T10:17:54.556Z,99.90
2023-01-02T10:21:59.998Z,99.90
2023-01-02T10:26:13.835Z,99.90
2023-01-02T10:30:18.883Z,99.90
2023-01-02T10:34:23.890Z,99.90
2023-01-02T10:38:36.903Z,99.90
2023-01-02T10:42:38.756Z,99.90
2023-01-02T10:46:42.045Z,99.90
2023-01-02T10:50:54.250Z,99.90
2023-01-02T10:55:00.038Z,99.90
2023-01-02T10:59:03.162Z,99.90
2023-01-02T11:03:23.760Z,99.90
2023-01-02T11:07:26.776Z,99.90
2023-01-02T11:11:30.465Z,99.90
2023-01-02T11:15:36.069Z,99.90
2023-01-02T11:19:51.977Z,99.90
2023-01-02T11:24:01.108Z,99.90
2023-01-02T11:28:03.521Z,99.90
2023-01-02T11:32:05.378Z,99.90
2023-01-02T11:36:16.944Z,99.90
2023-01-02T11:40:27.737Z,99.90
2023-01-02T11:44:42.429Z,99.90
2023-01-02T11:48:44.825Z,99.90
2023-01-02T11:52:54.300Z,99.90
2023-01-02T11:56:59.444Z,99.90
2023-01-02T12:01:39.403Z,99.90
2023-01-02T12:06:11.934Z,99.90
2023-01-02T12:10:20.309Z,99.90
2023-01-02T12:14:54.917Z,99.90
2023-01-02T12:19:02.641Z,99.90
2023-01-02T12:23:42.885Z,99.90
2023-01-02T12:27:53.533Z,99.90
2023-01-02T12:32:20.646Z,99.90
2023-01-02T12:36:43.238Z,99.90
2023-01-02T12:41:21.417Z,99.90
2023-01-02T12:45:29.075Z,99.90
2023-01-02T12:50:04.547Z,98.20
2023-01-02T12:54:27.405Z,95.70
2023-01-02T12:58:47.582Z,93.90
2023-01-02T13:03:08.000Z,93.30
2023-01-02T13:07:21.698Z,92.10
2023-01-02T13:11:37.085Z,91.00
2023-01-02T13:15:43.857Z,90.90
2023-01-02T13:20:21.230Z,90.20
2023-01-02T13:24:26.002Z,90.60
2023-01-02T13:28:27.945Z,90.00
2023-01-02T13:32:31.814Z,88.90
2023-01-02T13:36:44.705Z,90.20
2023-01-02T13:40:55.588Z,89.30
2023-01-02T13:44:59.965Z,88.60
2023-01-02T13:49:06.067Z,90.00
2023-01-02T13:53:10.820Z,88.50
2023-01-02T13:57:25.153Z,89.60
2023-01-02T14:01:32.061Z,90.00
2023-01-02T14:06:11.685Z,89.10
2023-01-02T14:10:20.552Z,87.80
2023-01-02T14:14:54.675Z,88.60
2023-01-02T14:19:18.128Z,89.80
2023-01-02T14:23:30.194Z,88.90
2023-01-02T14:27:34.919Z,88.50
2023-01-02T14:31:37.713Z,89.40
2023-01-02T14:35:49.377Z,89.00
2023-01-02T14:39:51.133Z,88.10
2023-01-02T14:43:53.192Z,89.70
2023-01-02T14:48:00.770Z,88.30
2023-01-02T14:52:07.426Z,87.90
2023-01-02T14:56:18.255Z,89.20
2023-01-02T15:00:37.519Z,90.10
2023-01-02T15:04:51.211Z,90.40
2023-01-02T15:08:56.724Z,90.10
2023-01-02T15:13:07.323Z,90.20
2023-01-02T15:17:13.688Z,90.00
2023-01-02T15:21:15.903Z,90.80
2023-01-02T15:25:34.263Z,90.80
2023-01-02T15:29:36.052Z,91.60
2023-01-02T15:33:38.331Z,92.30
2023-01-02T15:37:44.839Z,93.00
2023-01-02T15:41:49.420Z,93.60
2023-01-02T15:45:52.647Z,93.60
2023-01-02T15:49:56.237Z,94.20
2023-01-02T15:54:03.148Z,94.70
2023-01-02T15:58:17.448Z,94.90
2023-01-02T16:02:44.983Z,95.30
2023-01-02T16:06:47.410Z,95.60
2023-01-02T16:10:51.471Z,95.80
2023-01-02T16:14:56.862Z,96.00
2023-01-02T16:19:00.534Z,96.20
2023-01-02T16:23:07.447Z,96.30
2023-01-02T16:27:23.190Z,95.40
2023-01-02T16:31:25.255Z,94.30
2023-01-02T16:35:30.173Z,93.90
2023-01-02T16:39:42.372Z,94.10
2023-01-02T16:43:46.432Z,93.70
2023-01-02T16:47:48.628Z,93.60
2023-01-02T16:51:53.474Z,93.90
2023-01-02T16:55:55.680Z,94.40
2023-01-02T16:59:57.525Z,94.20
2023-01-02T17:04:00.232Z,94.60
2023-01-02T17:08:02.063Z,94.50
2023-01-02T17:12:04.364Z,94.40
2023-01-02T17:16:06.824Z,94.30
2023-01-02T17:20:10.909Z,94.50
2023-01-02T17:24:12.715Z,94.80
2023-01-02T17:28:15.120Z,94.60
2023-01-02T17:32:17.979Z,95.10
2023-01-02T17:36:19.765Z,94.60
2023-01-02T17:40:21.599Z,95.20
2023-01-02T17:44:23.423Z,95.40
2023-01-02T17:48:25.606Z,95.60
2023-01-02T17:52:27.617Z,95.30
2023-01-02T17:56:30.343Z,95.80
2023-01-02T18:00:32.233Z,95.80
2023-01-02T18:04:34.513Z,96.00
2023-01-02T18:08:37.853Z,96.10
2023-01-02T18:12:39.843Z,96.00
2023-01-02T18:16:42.809Z,96.30
2023-01-02T18:20:46.532Z,96.20
2023-01-02T18:24:49.340Z,96.30
2023-01-02T18:29:02.812Z,96.00
2023-01-02T18:33:15.455Z,96.00
2023-01-02T18:37:23.753Z,95.90
2023-01-02T18:41:27.341Z,96.40
2023-01-02T18:45:31.241Z,96.00
2023-01-02T18:49:42.878Z,96.20
2023-01-02T18:53:53.705Z,96.10
2023-01-02T18:58:07.655Z,96.10
2023-01-02T19:02:27.567Z,96.30
2023-01-02T19:06:42.132Z,96.20
2023-01-02T19:10:49.710Z,96.30
2023-01-02T19:14:54.073Z,96.40
2023-01-02T19:18:57.067Z,96.60
2023-01-02T19:23:00.219Z,96.50
2023-01-02T19:27:09.516Z,96.70
2023-01-02T19:31:16.298Z,97.00
2023-01-02T19:35:39.799Z,97.00
2023-01-02T19:39:49.756Z,97.00
2023-01-02T19:43:51.551Z,97.10
2023-01-02T19:47:54.119Z,96.90
2023-01-02T19:51:55.877Z,96.90
2023-01-02T19:55:57.716Z,97.50
2023-01-02T19:59:59.628Z,97.70
2023-01-02T20:04:01.591Z,97.70
2023-01-02T20:08:03.588Z,98.60
2023-01-02T20:12:24.157Z,98.60
2023-01-02T20:16:26.230Z,99.60
2023-01-02T20:20:29.612Z,99.90
2023-01-02T20:24:31.897Z,99.90
2023-01-02T20:28:33.904Z,99.90
2023-01-02T20:32:36.587Z,99.90
2023-01-02T20:36:38.526Z,99.90
2023-01-02T20:40:40.510Z,99.90
2023-01-02T20:44:42.589Z,99.90
2023-01-02T20:48:45.329Z,99.90
2023-01-02T20:52:53.501Z,99.90
2023-01-02T20:56:58.588Z,99.90
2023-01-02T21:01:00.465Z,99.90
2023-01-02T21:05:02.495Z,99.90
2023-01-02T21:09:05.103Z,99.90
2023-01-02T21:18:52.371Z,99.90
2023-01-02T21:22:54.387Z,99.90
2023-01-02T21:26:56.291Z,99.90
2023-01-02T21:30:58.607Z,99.50
2023-01-02T21:35:00.675Z,99.30
2023-01-02T21:39:02.615Z,99.90
2023-01-02T21:43:05.260Z,99.90
2023-01-02T21:47:07.363Z,99.80
2023-01-02T21:51:09.538Z,99.30
2023-01-02T21:55:17.428Z,99.60
2023-01-02T21:59:21.057Z,98.70
2023-01-02T22:03:23.155Z,98.50
2023-01-02T22:07:33.571Z,98.10
2023-01-02T22:11:55.266Z,98.70
2023-01-02T22:15:57.216Z,98.10
2023-01-02T22:19:59.256Z,99.10
2023-01-02T22:24:01.162Z,98.90
2023-01-02T22:28:03.126Z,98.70
2023-01-02T22:32:05.598Z,98.80
2023-01-02T22:36:08.426Z,98.90
2023-01-02T22:40:10.968Z,98.80
2023-01-02T22:44:17.190Z,98.70
2023-01-02T22:48:32.519Z,99.70
2023-01-02T22:52:35.036Z,99.20
2023-01-02T22:56:37.045Z,98.90
2023-01-02T23:00:39.135Z,99.00
2023-01-02T23:04:41.082Z,99.10
2023-01-02T23:08:43.406Z,98.80
2023-01-02T23:12:45.544Z,98.90
2023-01-02T23:17:05.794Z,98.40
2023-01-02T23:21:08.607Z,98.60
2023-01-02T23:25:10.575Z,98.30
2023-01-02T23:29:13.586Z,99.60
2023-01-02T23:33:15.585Z,99.10
2023-01-02T23:37:17.515Z,98.80
2023-01-02T23:41:19.375Z,98.90
2023-01-02T23:45:21.299Z,98.80
2023-01-02T23:49:23.561Z,99.20
2023-01-02T23:53:26.908Z,98.90
2023-01-02T23:57:28.861Z,99.00
